Coleman A. Young Municipal Airport
KDET : rendu visible

Aérodrome :











RETROUVEZ-NOUS SUR...

 
LOGIN :

S'inscrire | Disclaimer

   EN    FR    IT 

 









Légende :    VFR   VFR Marginal   IFR   IFR Intensif   IFR Très Intensif
Visi : 
Plafond : 
>= 8 km
>= 3000ft
5 à 8 km
1000 à 3000 ft
1500m à 5 km
500 à 1000 ft
800 à 1500m
200 à 500 ft
< 800m
< 200 ft
Symboles :   Orages  Brouillard  Fortes neiges  Fortes précipitations  Vent > 20 kt






- Altitude de l'aérodrome : 626 ft
- Code IATA : DET


KDET - Coleman A. Young Municipal

DERNIER METAR :
  • 190253Z 24009KT 5SM -SN BR SCT014 BKN023 OVC028 01/00 A2967 RMK AO2 SLP052 P0000 60000 T00110000 51010

METARs EXPIRÉS :
  • 190235Z 26007KT 3SM -SN BR FEW010 BKN020 OVC030 01/00 A2967 RMK AO2 P0000 T00110000
  • 190222Z 25008KT 2 1/2SM -SN BR FEW012 BKN019 OVC030 01/00 A2966 RMK AO2 P0000 T00110000
  • 190201Z 26009G18KT 5SM -SN BR SCT018 BKN028 OVC038 01/00 A2967 RMK AO2 P0000 T00110000
  • 190153Z 25011G18KT 6SM -SN BR FEW019 SCT028 OVC038 01/00 A2967 RMK AO2 PK WND 26027/0102 UPB34E43SNB15E25B48 SLP052 P0000 T00110000
  • 190053Z 26016G25KT 10SM FEW025 BKN034 OVC047 02/M02 A2965 RMK AO2 PK WND 25026/0037 RAE2355UPB24E49 SLP048 P0000 T00221017

TAF KDET
Valide du 19 à 00h jusqu'au 20 à 00h UTC


182325Z 1900/1924 26018G32KT P6SM OVC022
FM190200 26022G36KT P6SM -SHSN OVC018
TEMPO 1902/1905 1SM -SHSN BKN010 OVC020
FM190700 27020G30KT P6SM BKN025 OVC035
FM191800 29016G26KT 5SM -SHSN OVC025
TEMPO 1919/1922 3/4SM -SHSN OVC009
FM192200 34012G22KT P6SM SCT025 BKN035



MET'MAP, la Météo Aéronautique d'un coup d'oeil ! - Copyright ORBIFLY Décembre 2007 - Disclaimer

ORBIFLY MET'MAP TEAM :

Programmation & Développement : Alexandra Zaïnal
Sur une idée originale de : Baudouin d'Aumeries
Assistance à la programmation : Marc-Olivier Méhu
Soutien technique & logistique : Manuel Goepfert

Contact : metmap@orbifly.com




SOURCES & CREDITS :

   NOAA       Earth
Advisory